sensor_id;sensor_type;location;lat;lon;timestamp;P1;durP1;ratioP1;P2;durP2;ratioP2
15307;SDS011;7755;52.208;6.964;2023-05-16T00:02:30;5.60;;;3.70;;
15307;SDS011;7755;52.208;6.964;2023-05-16T00:06:33;5.27;;;3.03;;
15307;SDS011;7755;52.208;6.964;2023-05-16T00:10:36;6.70;;;3.30;;
15307;SDS011;7755;52.208;6.964;2023-05-16T00:14:40;6.73;;;3.67;;
15307;SDS011;7755;52.208;6.964;2023-05-16T00:18:43;7.10;;;3.53;;
15307;SDS011;7755;52.208;6.964;2023-05-16T00:22:46;13.97;;;4.70;;
15307;SDS011;7755;52.208;6.964;2023-05-16T00:26:49;12.00;;;4.70;;
15307;SDS011;7755;52.208;6.964;2023-05-16T00:30:53;6.63;;;3.87;;
15307;SDS011;7755;52.208;6.964;2023-05-16T00:34:56;8.73;;;3.63;;
15307;SDS011;7755;52.208;6.964;2023-05-16T00:38:59;7.13;;;4.70;;
15307;SDS011;7755;52.208;6.964;2023-05-16T00:43:02;11.60;;;4.40;;
15307;SDS011;7755;52.208;6.964;2023-05-16T00:47:06;10.87;;;3.83;;
15307;SDS011;7755;52.208;6.964;2023-05-16T00:51:09;10.03;;;4.47;;
15307;SDS011;7755;52.208;6.964;2023-05-16T00:55:18;9.07;;;4.50;;
15307;SDS011;7755;52.208;6.964;2023-05-16T00:59:22;10.83;;;4.13;;
15307;SDS011;7755;52.208;6.964;2023-05-16T01:03:26;9.00;;;4.17;;
15307;SDS011;7755;52.208;6.964;2023-05-16T01:07:30;8.93;;;4.33;;
15307;SDS011;7755;52.208;6.964;2023-05-16T01:11:35;6.03;;;4.27;;
15307;SDS011;7755;52.208;6.964;2023-05-16T01:15:46;9.27;;;4.50;;
15307;SDS011;7755;52.208;6.964;2023-05-16T01:20:02;11.30;;;4.20;;
15307;SDS011;7755;52.208;6.964;2023-05-16T01:24:21;9.47;;;4.20;;
15307;SDS011;7755;52.208;6.964;2023-05-16T01:28:29;9.53;;;4.30;;
15307;SDS011;7755;52.208;6.964;2023-05-16T01:32:34;9.40;;;5.63;;
15307;SDS011;7755;52.208;6.964;2023-05-16T01:36:38;9.80;;;4.80;;
15307;SDS011;7755;52.208;6.964;2023-05-16T01:40:47;6.07;;;3.87;;
15307;SDS011;7755;52.208;6.964;2023-05-16T01:45:01;7.80;;;4.13;;
15307;SDS011;7755;52.208;6.964;2023-05-16T01:49:14;13.80;;;5.30;;
15307;SDS011;7755;52.208;6.964;2023-05-16T01:53:19;9.80;;;4.83;;
15307;SDS011;7755;52.208;6.964;2023-05-16T01:57:26;9.27;;;4.27;;
15307;SDS011;7755;52.208;6.964;2023-05-16T02:01:33;12.37;;;5.10;;
15307;SDS011;7755;52.208;6.964;2023-05-16T02:05:37;9.67;;;4.57;;
15307;SDS011;7755;52.208;6.964;2023-05-16T02:09:40;11.30;;;4.50;;
15307;SDS011;7755;52.208;6.964;2023-05-16T02:13:43;15.40;;;4.93;;
15307;SDS011;7755;52.208;6.964;2023-05-16T02:17:47;9.63;;;4.40;;
15307;SDS011;7755;52.208;6.964;2023-05-16T02:21:51;11.03;;;4.20;;
15307;SDS011;7755;52.208;6.964;2023-05-16T02:25:53;10.93;;;5.03;;
15307;SDS011;7755;52.208;6.964;2023-05-16T02:29:56;12.10;;;5.23;;
15307;SDS011;7755;52.208;6.964;2023-05-16T02:34:00;11.23;;;4.50;;
15307;SDS011;7755;52.208;6.964;2023-05-16T02:38:03;11.97;;;4.37;;
15307;SDS011;7755;52.208;6.964;2023-05-16T02:42:06;10.90;;;4.00;;
15307;SDS011;7755;52.208;6.964;2023-05-16T02:46:19;9.43;;;4.67;;
15307;SDS011;7755;52.208;6.964;2023-05-16T02:50:24;12.83;;;4.23;;
15307;SDS011;7755;52.208;6.964;2023-05-16T02:54:27;12.10;;;4.23;;
15307;SDS011;7755;52.208;6.964;2023-05-16T02:58:30;10.43;;;3.83;;
15307;SDS011;7755;52.208;6.964;2023-05-16T03:02:33;11.87;;;5.03;;
15307;SDS011;7755;52.208;6.964;2023-05-16T03:06:37;8.50;;;3.90;;
15307;SDS011;7755;52.208;6.964;2023-05-16T03:10:40;8.60;;;3.90;;
15307;SDS011;7755;52.208;6.964;2023-05-16T03:14:42;7.30;;;3.80;;
15307;SDS011;7755;52.208;6.964;2023-05-16T03:18:45;10.30;;;4.57;;
15307;SDS011;7755;52.208;6.964;2023-05-16T03:22:49;9.23;;;4.10;;
15307;SDS011;7755;52.208;6.964;2023-05-16T03:26:52;11.37;;;4.83;;
15307;SDS011;7755;52.208;6.964;2023-05-16T03:30:55;10.73;;;4.13;;
15307;SDS011;7755;52.208;6.964;2023-05-16T03:34:58;10.07;;;3.97;;
15307;SDS011;7755;52.208;6.964;2023-05-16T03:39:02;6.67;;;3.83;;
15307;SDS011;7755;52.208;6.964;2023-05-16T03:43:05;8.40;;;3.57;;
15307;SDS011;7755;52.208;6.964;2023-05-16T03:47:08;10.07;;;4.20;;
15307;SDS011;7755;52.208;6.964;2023-05-16T03:51:11;15.07;;;4.60;;
15307;SDS011;7755;52.208;6.964;2023-05-16T03:55:15;10.13;;;3.57;;
15307;SDS011;7755;52.208;6.964;2023-05-16T03:59:18;11.30;;;4.33;;
15307;SDS011;7755;52.208;6.964;2023-05-16T04:03:20;11.63;;;3.83;;
15307;SDS011;7755;52.208;6.964;2023-05-16T04:07:29;10.30;;;3.77;;
15307;SDS011;7755;52.208;6.964;2023-05-16T04:11:33;6.50;;;3.60;;
15307;SDS011;7755;52.208;6.964;2023-05-16T04:15:36;7.90;;;3.57;;
15307;SDS011;7755;52.208;6.964;2023-05-16T04:19:42;11.93;;;4.30;;
15307;SDS011;7755;52.208;6.964;2023-05-16T04:23:45;12.20;;;4.40;;
15307;SDS011;7755;52.208;6.964;2023-05-16T04:27:50;10.70;;;3.67;;
15307;SDS011;7755;52.208;6.964;2023-05-16T04:31:53;8.60;;;3.73;;
15307;SDS011;7755;52.208;6.964;2023-05-16T04:35:56;8.20;;;3.50;;
15307;SDS011;7755;52.208;6.964;2023-05-16T04:40:00;8.97;;;3.83;;
15307;SDS011;7755;52.208;6.964;2023-05-16T04:44:04;11.87;;;4.53;;
15307;SDS011;7755;52.208;6.964;2023-05-16T04:48:07;9.07;;;3.40;;
15307;SDS011;7755;52.208;6.964;2023-05-16T04:52:10;12.00;;;3.70;;
15307;SDS011;7755;52.208;6.964;2023-05-16T04:56:18;6.43;;;3.53;;
15307;SDS011;7755;52.208;6.964;2023-05-16T05:00:22;11.77;;;3.73;;
15307;SDS011;7755;52.208;6.964;2023-05-16T05:04:26;12.30;;;4.20;;
15307;SDS011;7755;52.208;6.964;2023-05-16T05:08:29;11.57;;;4.57;;
15307;SDS011;7755;52.208;6.964;2023-05-16T05:12:31;7.90;;;4.33;;
15307;SDS011;7755;52.208;6.964;2023-05-16T05:16:36;10.37;;;3.93;;
15307;SDS011;7755;52.208;6.964;2023-05-16T05:20:39;11.10;;;4.30;;
15307;SDS011;7755;52.208;6.964;2023-05-16T05:24:42;8.53;;;3.57;;
15307;SDS011;7755;52.208;6.964;2023-05-16T05:28:45;13.70;;;3.73;;
15307;SDS011;7755;52.208;6.964;2023-05-16T05:33:03;10.53;;;4.40;;
15307;SDS011;7755;52.208;6.964;2023-05-16T05:37:06;9.87;;;4.00;;
15307;SDS011;7755;52.208;6.964;2023-05-16T05:41:09;13.57;;;4.53;;
15307;SDS011;7755;52.208;6.964;2023-05-16T05:45:13;9.30;;;3.30;;
15307;SDS011;7755;52.208;6.964;2023-05-16T05:49:17;6.43;;;4.07;;
15307;SDS011;7755;52.208;6.964;2023-05-16T05:53:20;7.33;;;3.60;;
15307;SDS011;7755;52.208;6.964;2023-05-16T05:57:23;7.07;;;3.37;;
15307;SDS011;7755;52.208;6.964;2023-05-16T06:01:26;10.03;;;3.60;;
15307;SDS011;7755;52.208;6.964;2023-05-16T06:05:30;4.63;;;2.90;;
15307;SDS011;7755;52.208;6.964;2023-05-16T06:09:34;10.67;;;4.23;;
15307;SDS011;7755;52.208;6.964;2023-05-16T06:13:37;5.50;;;3.50;;
15307;SDS011;7755;52.208;6.964;2023-05-16T06:17:39;6.50;;;2.97;;
15307;SDS011;7755;52.208;6.964;2023-05-16T06:21:44;6.07;;;3.03;;
15307;SDS011;7755;52.208;6.964;2023-05-16T06:25:50;8.87;;;3.20;;
15307;SDS011;7755;52.208;6.964;2023-05-16T06:30:09;7.53;;;2.87;;
15307;SDS011;7755;52.208;6.964;2023-05-16T06:34:18;6.10;;;3.50;;
15307;SDS011;7755;52.208;6.964;2023-05-16T06:38:25;5.40;;;3.00;;
15307;SDS011;7755;52.208;6.964;2023-05-16T06:42:30;7.00;;;2.77;;
15307;SDS011;7755;52.208;6.964;2023-05-16T06:46:33;6.37;;;3.10;;
15307;SDS011;7755;52.208;6.964;2023-05-16T06:50:36;8.97;;;2.70;;
15307;SDS011;7755;52.208;6.964;2023-05-16T06:54:40;6.97;;;2.70;;
15307;SDS011;7755;52.208;6.964;2023-05-16T06:58:43;5.67;;;2.97;;
15307;SDS011;7755;52.208;6.964;2023-05-16T07:02:46;9.63;;;3.53;;
15307;SDS011;7755;52.208;6.964;2023-05-16T07:06:49;8.47;;;3.30;;
15307;SDS011;7755;52.208;6.964;2023-05-16T07:10:53;6.73;;;2.93;;
15307;SDS011;7755;52.208;6.964;2023-05-16T07:14:57;8.07;;;2.90;;
15307;SDS011;7755;52.208;6.964;2023-05-16T07:19:00;8.50;;;2.70;;
15307;SDS011;7755;52.208;6.964;2023-05-16T07:23:03;7.37;;;2.80;;
15307;SDS011;7755;52.208;6.964;2023-05-16T07:27:08;5.77;;;2.57;;
15307;SDS011;7755;52.208;6.964;2023-05-16T07:31:13;6.60;;;2.60;;
15307;SDS011;7755;52.208;6.964;2023-05-16T07:35:20;4.33;;;2.60;;
15307;SDS011;7755;52.208;6.964;2023-05-16T07:39:29;6.10;;;2.43;;
15307;SDS011;7755;52.208;6.964;2023-05-16T07:43:33;3.40;;;2.30;;
15307;SDS011;7755;52.208;6.964;2023-05-16T07:47:37;5.20;;;2.57;;
15307;SDS011;7755;52.208;6.964;2023-05-16T07:51:39;4.93;;;2.40;;
15307;SDS011;7755;52.208;6.964;2023-05-16T07:55:49;5.07;;;2.57;;
15307;SDS011;7755;52.208;6.964;2023-05-16T07:59:56;5.20;;;2.80;;
15307;SDS011;7755;52.208;6.964;2023-05-16T08:03:59;5.73;;;3.07;;
15307;SDS011;7755;52.208;6.964;2023-05-16T08:08:13;3.90;;;2.33;;
15307;SDS011;7755;52.208;6.964;2023-05-16T08:12:19;6.30;;;2.30;;
15307;SDS011;7755;52.208;6.964;2023-05-16T08:16:39;8.20;;;2.60;;
15307;SDS011;7755;52.208;6.964;2023-05-16T08:20:42;5.30;;;2.30;;
15307;SDS011;7755;52.208;6.964;2023-05-16T08:24:45;2.80;;;2.17;;
15307;SDS011;7755;52.208;6.964;2023-05-16T08:28:48;4.50;;;2.00;;
15307;SDS011;7755;52.208;6.964;2023-05-16T08:32:52;3.73;;;2.37;;
15307;SDS011;7755;52.208;6.964;2023-05-16T08:36:55;2.73;;;2.00;;
15307;SDS011;7755;52.208;6.964;2023-05-16T08:40:58;3.77;;;2.07;;
15307;SDS011;7755;52.208;6.964;2023-05-16T08:45:01;3.63;;;2.10;;
15307;SDS011;7755;52.208;6.964;2023-05-16T08:49:07;2.77;;;1.90;;
15307;SDS011;7755;52.208;6.964;2023-05-16T08:53:11;4.40;;;2.10;;
15307;SDS011;7755;52.208;6.964;2023-05-16T08:57:16;2.60;;;1.80;;
15307;SDS011;7755;52.208;6.964;2023-05-16T09:01:22;3.43;;;2.00;;
15307;SDS011;7755;52.208;6.964;2023-05-16T09:05:28;2.30;;;1.83;;
15307;SDS011;7755;52.208;6.964;2023-05-16T09:09:31;2.87;;;2.13;;
15307;SDS011;7755;52.208;6.964;2023-05-16T09:13:34;3.70;;;2.20;;
15307;SDS011;7755;52.208;6.964;2023-05-16T09:17:37;4.40;;;2.27;;
15307;SDS011;7755;52.208;6.964;2023-05-16T09:21:46;4.27;;;1.93;;
15307;SDS011;7755;52.208;6.964;2023-05-16T09:25:51;5.30;;;2.03;;
15307;SDS011;7755;52.208;6.964;2023-05-16T09:29:56;2.87;;;1.97;;
15307;SDS011;7755;52.208;6.964;2023-05-16T09:33:59;2.37;;;1.70;;
15307;SDS011;7755;52.208;6.964;2023-05-16T09:38:03;3.77;;;1.90;;
15307;SDS011;7755;52.208;6.964;2023-05-16T09:42:09;4.87;;;2.13;;
15307;SDS011;7755;52.208;6.964;2023-05-16T09:46:13;3.33;;;1.60;;
15307;SDS011;7755;52.208;6.964;2023-05-16T09:50:16;2.87;;;1.77;;
15307;SDS011;7755;52.208;6.964;2023-05-16T09:54:29;2.60;;;1.63;;
15307;SDS011;7755;52.208;6.964;2023-05-16T09:58:34;2.83;;;1.60;;
15307;SDS011;7755;52.208;6.964;2023-05-16T10:02:38;4.50;;;1.83;;
15307;SDS011;7755;52.208;6.964;2023-05-16T10:06:43;5.50;;;2.17;;
15307;SDS011;7755;52.208;6.964;2023-05-16T10:10:51;3.27;;;2.07;;
15307;SDS011;7755;52.208;6.964;2023-05-16T10:14:55;4.93;;;2.27;;
15307;SDS011;7755;52.208;6.964;2023-05-16T10:18:59;3.27;;;1.87;;
15307;SDS011;7755;52.208;6.964;2023-05-16T10:23:04;4.60;;;1.77;;
15307;SDS011;7755;52.208;6.964;2023-05-16T10:27:09;2.83;;;1.50;;
15307;SDS011;7755;52.208;6.964;2023-05-16T10:31:12;3.90;;;1.73;;
15307;SDS011;7755;52.208;6.964;2023-05-16T10:35:18;2.27;;;1.67;;
15307;SDS011;7755;52.208;6.964;2023-05-16T10:39:22;3.80;;;1.70;;
15307;SDS011;7755;52.208;6.964;2023-05-16T10:43:28;2.07;;;1.53;;
15307;SDS011;7755;52.208;6.964;2023-05-16T10:47:32;4.47;;;2.00;;
15307;SDS011;7755;52.208;6.964;2023-05-16T10:51:36;3.67;;;1.60;;
15307;SDS011;7755;52.208;6.964;2023-05-16T10:55:39;4.50;;;1.80;;
15307;SDS011;7755;52.208;6.964;2023-05-16T10:59:47;3.37;;;1.80;;
15307;SDS011;7755;52.208;6.964;2023-05-16T11:04:07;5.17;;;1.93;;
15307;SDS011;7755;52.208;6.964;2023-05-16T11:08:12;2.07;;;1.97;;
15307;SDS011;7755;52.208;6.964;2023-05-16T11:12:15;2.13;;;1.67;;
15307;SDS011;7755;52.208;6.964;2023-05-16T11:16:32;4.10;;;1.77;;
15307;SDS011;7755;52.208;6.964;2023-05-16T11:20:36;3.20;;;1.50;;
15307;SDS011;7755;52.208;6.964;2023-05-16T11:24:47;3.43;;;1.70;;
15307;SDS011;7755;52.208;6.964;2023-05-16T11:28:53;5.13;;;1.80;;
15307;SDS011;7755;52.208;6.964;2023-05-16T11:33:00;4.93;;;2.10;;
15307;SDS011;7755;52.208;6.964;2023-05-16T11:37:03;2.00;;;1.43;;
15307;SDS011;7755;52.208;6.964;2023-05-16T11:41:06;3.47;;;1.80;;
15307;SDS011;7755;52.208;6.964;2023-05-16T11:45:11;3.67;;;1.80;;
15307;SDS011;7755;52.208;6.964;2023-05-16T11:49:18;4.60;;;1.97;;
15307;SDS011;7755;52.208;6.964;2023-05-16T11:53:21;3.50;;;1.87;;
15307;SDS011;7755;52.208;6.964;2023-05-16T11:57:24;4.47;;;2.23;;
15307;SDS011;7755;52.208;6.964;2023-05-16T12:01:32;4.57;;;2.00;;
15307;SDS011;7755;52.208;6.964;2023-05-16T12:05:38;2.93;;;2.00;;
15307;SDS011;7755;52.208;6.964;2023-05-16T12:09:41;3.60;;;1.73;;
15307;SDS011;7755;52.208;6.964;2023-05-16T12:13:43;2.97;;;2.00;;
15307;SDS011;7755;52.208;6.964;2023-05-16T12:17:47;2.77;;;1.70;;
15307;SDS011;7755;52.208;6.964;2023-05-16T12:21:52;5.67;;;2.27;;
15307;SDS011;7755;52.208;6.964;2023-05-16T12:25:55;5.30;;;2.10;;
15307;SDS011;7755;52.208;6.964;2023-05-16T12:29:58;2.17;;;1.60;;
15307;SDS011;7755;52.208;6.964;2023-05-16T12:34:01;2.10;;;1.50;;
15307;SDS011;7755;52.208;6.964;2023-05-16T12:38:06;3.80;;;1.70;;
15307;SDS011;7755;52.208;6.964;2023-05-16T12:42:11;3.70;;;2.07;;
15307;SDS011;7755;52.208;6.964;2023-05-16T12:46:14;4.43;;;1.87;;
15307;SDS011;7755;52.208;6.964;2023-05-16T12:50:17;3.73;;;1.97;;
15307;SDS011;7755;52.208;6.964;2023-05-16T12:54:22;6.43;;;2.13;;
15307;SDS011;7755;52.208;6.964;2023-05-16T12:58:25;6.17;;;2.33;;
15307;SDS011;7755;52.208;6.964;2023-05-16T13:02:31;1.83;;;1.73;;
15307;SDS011;7755;52.208;6.964;2023-05-16T13:06:35;2.77;;;1.80;;
15307;SDS011;7755;52.208;6.964;2023-05-16T13:10:59;2.97;;;2.00;;
15307;SDS011;7755;52.208;6.964;2023-05-16T13:15:03;4.07;;;2.23;;
15307;SDS011;7755;52.208;6.964;2023-05-16T13:19:07;5.10;;;2.10;;
15307;SDS011;7755;52.208;6.964;2023-05-16T13:23:10;3.07;;;1.83;;
15307;SDS011;7755;52.208;6.964;2023-05-16T13:27:15;4.10;;;2.00;;
15307;SDS011;7755;52.208;6.964;2023-05-16T13:31:18;3.00;;;1.90;;
15307;SDS011;7755;52.208;6.964;2023-05-16T13:35:22;2.77;;;1.97;;
15307;SDS011;7755;52.208;6.964;2023-05-16T13:39:25;2.70;;;2.13;;
15307;SDS011;7755;52.208;6.964;2023-05-16T13:43:29;3.70;;;2.17;;
15307;SDS011;7755;52.208;6.964;2023-05-16T13:47:32;4.53;;;2.20;;
15307;SDS011;7755;52.208;6.964;2023-05-16T13:51:35;3.37;;;2.00;;
15307;SDS011;7755;52.208;6.964;2023-05-16T13:55:38;2.70;;;1.70;;
15307;SDS011;7755;52.208;6.964;2023-05-16T13:59:42;3.30;;;2.03;;
15307;SDS011;7755;52.208;6.964;2023-05-16T14:04:11;2.53;;;2.03;;
15307;SDS011;7755;52.208;6.964;2023-05-16T14:08:14;2.43;;;2.10;;
15307;SDS011;7755;52.208;6.964;2023-05-16T14:12:17;4.30;;;2.17;;
15307;SDS011;7755;52.208;6.964;2023-05-16T14:16:21;4.60;;;2.57;;
15307;SDS011;7755;52.208;6.964;2023-05-16T14:20:24;3.23;;;2.00;;
15307;SDS011;7755;52.208;6.964;2023-05-16T14:24:27;2.73;;;2.20;;
15307;SDS011;7755;52.208;6.964;2023-05-16T14:28:30;2.80;;;2.37;;
15307;SDS011;7755;52.208;6.964;2023-05-16T14:32:34;2.37;;;1.73;;
15307;SDS011;7755;52.208;6.964;2023-05-16T14:36:37;3.40;;;2.30;;
15307;SDS011;7755;52.208;6.964;2023-05-16T14:40:40;2.67;;;1.97;;
15307;SDS011;7755;52.208;6.964;2023-05-16T14:44:43;3.60;;;2.53;;
15307;SDS011;7755;52.208;6.964;2023-05-16T14:48:47;3.37;;;2.20;;
15307;SDS011;7755;52.208;6.964;2023-05-16T14:52:51;2.67;;;2.47;;
15307;SDS011;7755;52.208;6.964;2023-05-16T14:56:54;4.13;;;2.50;;
15307;SDS011;7755;52.208;6.964;2023-05-16T15:00:57;5.00;;;2.60;;
15307;SDS011;7755;52.208;6.964;2023-05-16T15:05:01;6.80;;;2.60;;
15307;SDS011;7755;52.208;6.964;2023-05-16T15:09:04;3.30;;;2.47;;
15307;SDS011;7755;52.208;6.964;2023-05-16T15:13:07;2.60;;;2.30;;
15307;SDS011;7755;52.208;6.964;2023-05-16T15:17:10;3.50;;;2.27;;
15307;SDS011;7755;52.208;6.964;2023-05-16T15:21:14;2.97;;;2.70;;
15307;SDS011;7755;52.208;6.964;2023-05-16T15:25:17;6.17;;;3.20;;
15307;SDS011;7755;52.208;6.964;2023-05-16T15:29:20;5.80;;;3.07;;
15307;SDS011;7755;52.208;6.964;2023-05-16T15:33:22;5.00;;;3.17;;
15307;SDS011;7755;52.208;6.964;2023-05-16T15:37:27;5.53;;;3.37;;
15307;SDS011;7755;52.208;6.964;2023-05-16T15:41:30;4.03;;;3.20;;
15307;SDS011;7755;52.208;6.964;2023-05-16T15:45:37;6.17;;;3.80;;
15307;SDS011;7755;52.208;6.964;2023-05-16T15:49:41;5.67;;;3.40;;
15307;SDS011;7755;52.208;6.964;2023-05-16T15:53:46;4.03;;;2.93;;
15307;SDS011;7755;52.208;6.964;2023-05-16T15:57:49;6.47;;;3.17;;
15307;SDS011;7755;52.208;6.964;2023-05-16T16:01:51;5.17;;;3.70;;
15307;SDS011;7755;52.208;6.964;2023-05-16T16:05:54;4.90;;;3.33;;
15307;SDS011;7755;52.208;6.964;2023-05-16T16:09:59;5.53;;;4.03;;
15307;SDS011;7755;52.208;6.964;2023-05-16T16:14:01;6.03;;;4.17;;
15307;SDS011;7755;52.208;6.964;2023-05-16T16:18:04;5.10;;;3.97;;
15307;SDS011;7755;52.208;6.964;2023-05-16T16:22:07;5.60;;;3.87;;
15307;SDS011;7755;52.208;6.964;2023-05-16T16:26:11;4.50;;;3.77;;
15307;SDS011;7755;52.208;6.964;2023-05-16T16:30:14;5.60;;;3.90;;
15307;SDS011;7755;52.208;6.964;2023-05-16T16:34:17;4.70;;;4.20;;
15307;SDS011;7755;52.208;6.964;2023-05-16T16:38:23;5.63;;;4.27;;
15307;SDS011;7755;52.208;6.964;2023-05-16T16:42:27;5.63;;;3.87;;
15307;SDS011;7755;52.208;6.964;2023-05-16T16:46:31;6.37;;;4.07;;
15307;SDS011;7755;52.208;6.964;2023-05-16T16:50:34;5.17;;;3.87;;
15307;SDS011;7755;52.208;6.964;2023-05-16T16:54:37;5.77;;;3.57;;
15307;SDS011;7755;52.208;6.964;2023-05-16T16:58:41;6.17;;;3.53;;
15307;SDS011;7755;52.208;6.964;2023-05-16T17:02:44;6.30;;;3.70;;
15307;SDS011;7755;52.208;6.964;2023-05-16T17:06:47;6.20;;;3.40;;
15307;SDS011;7755;52.208;6.964;2023-05-16T17:10:50;4.83;;;4.33;;
15307;SDS011;7755;52.208;6.964;2023-05-16T17:14:54;5.00;;;3.23;;
15307;SDS011;7755;52.208;6.964;2023-05-16T17:18:57;7.13;;;4.97;;
15307;SDS011;7755;52.208;6.964;2023-05-16T17:23:00;5.67;;;4.13;;
15307;SDS011;7755;52.208;6.964;2023-05-16T17:27:03;3.93;;;3.50;;
15307;SDS011;7755;52.208;6.964;2023-05-16T17:31:08;7.43;;;3.97;;
15307;SDS011;7755;52.208;6.964;2023-05-16T17:35:11;6.63;;;3.20;;
15307;SDS011;7755;52.208;6.964;2023-05-16T17:39:13;7.37;;;3.50;;
15307;SDS011;7755;52.208;6.964;2023-05-16T17:43:16;4.87;;;3.20;;
15307;SDS011;7755;52.208;6.964;2023-05-16T17:47:20;5.77;;;3.20;;
15307;SDS011;7755;52.208;6.964;2023-05-16T17:51:23;5.43;;;3.70;;
15307;SDS011;7755;52.208;6.964;2023-05-16T17:55:26;4.47;;;3.60;;
15307;SDS011;7755;52.208;6.964;2023-05-16T17:59:29;4.93;;;3.13;;
15307;SDS011;7755;52.208;6.964;2023-05-16T18:03:33;5.17;;;2.77;;
15307;SDS011;7755;52.208;6.964;2023-05-16T18:07:36;3.93;;;2.57;;
15307;SDS011;7755;52.208;6.964;2023-05-16T18:11:39;5.00;;;2.60;;
15307;SDS011;7755;52.208;6.964;2023-05-16T18:15:42;3.13;;;2.40;;
15307;SDS011;7755;52.208;6.964;2023-05-16T18:19:46;2.73;;;2.47;;
15307;SDS011;7755;52.208;6.964;2023-05-16T18:23:49;3.37;;;2.33;;
15307;SDS011;7755;52.208;6.964;2023-05-16T18:27:52;3.70;;;2.57;;
15307;SDS011;7755;52.208;6.964;2023-05-16T18:31:55;3.10;;;2.23;;
15307;SDS011;7755;52.208;6.964;2023-05-16T18:36:01;5.07;;;2.37;;
15307;SDS011;7755;52.208;6.964;2023-05-16T18:40:05;4.43;;;2.40;;
15307;SDS011;7755;52.208;6.964;2023-05-16T18:44:09;3.33;;;2.77;;
15307;SDS011;7755;52.208;6.964;2023-05-16T18:48:12;3.47;;;2.40;;
15307;SDS011;7755;52.208;6.964;2023-05-16T18:52:16;5.20;;;2.80;;
15307;SDS011;7755;52.208;6.964;2023-05-16T18:56:19;2.97;;;2.63;;
15307;SDS011;7755;52.208;6.964;2023-05-16T19:00:23;4.50;;;2.50;;
15307;SDS011;7755;52.208;6.964;2023-05-16T19:04:26;2.70;;;2.50;;
15307;SDS011;7755;52.208;6.964;2023-05-16T19:08:30;3.30;;;2.50;;
15307;SDS011;7755;52.208;6.964;2023-05-16T19:12:47;3.53;;;2.27;;
15307;SDS011;7755;52.208;6.964;2023-05-16T19:16:50;3.27;;;2.30;;
15307;SDS011;7755;52.208;6.964;2023-05-16T19:20:53;2.60;;;2.40;;
15307;SDS011;7755;52.208;6.964;2023-05-16T19:24:58;3.30;;;2.60;;
15307;SDS011;7755;52.208;6.964;2023-05-16T19:29:01;2.87;;;2.30;;
15307;SDS011;7755;52.208;6.964;2023-05-16T19:33:04;5.47;;;2.60;;
15307;SDS011;7755;52.208;6.964;2023-05-16T19:37:07;5.43;;;2.83;;
15307;SDS011;7755;52.208;6.964;2023-05-16T19:41:12;2.70;;;2.43;;
15307;SDS011;7755;52.208;6.964;2023-05-16T19:45:15;3.43;;;2.33;;
15307;SDS011;7755;52.208;6.964;2023-05-16T19:49:17;2.70;;;2.20;;
15307;SDS011;7755;52.208;6.964;2023-05-16T19:53:20;4.87;;;2.60;;
15307;SDS011;7755;52.208;6.964;2023-05-16T19:57:24;4.03;;;2.37;;
15307;SDS011;7755;52.208;6.964;2023-05-16T20:01:27;5.60;;;3.50;;
15307;SDS011;7755;52.208;6.964;2023-05-16T20:05:30;4.60;;;3.60;;
15307;SDS011;7755;52.208;6.964;2023-05-16T20:09:33;3.23;;;2.93;;
15307;SDS011;7755;52.208;6.964;2023-05-16T20:13:37;4.30;;;3.60;;
15307;SDS011;7755;52.208;6.964;2023-05-16T20:17:40;4.23;;;2.97;;
15307;SDS011;7755;52.208;6.964;2023-05-16T20:21:43;4.13;;;2.70;;
15307;SDS011;7755;52.208;6.964;2023-05-16T20:25:46;4.37;;;2.60;;
15307;SDS011;7755;52.208;6.964;2023-05-16T20:29:50;2.83;;;2.30;;
15307;SDS011;7755;52.208;6.964;2023-05-16T20:33:54;3.80;;;2.80;;
15307;SDS011;7755;52.208;6.964;2023-05-16T20:37:57;4.53;;;3.00;;
15307;SDS011;7755;52.208;6.964;2023-05-16T20:42:00;4.30;;;2.63;;
15307;SDS011;7755;52.208;6.964;2023-05-16T20:46:04;3.47;;;2.70;;
15307;SDS011;7755;52.208;6.964;2023-05-16T20:50:08;2.87;;;2.60;;
15307;SDS011;7755;52.208;6.964;2023-05-16T20:54:11;4.20;;;2.53;;
15307;SDS011;7755;52.208;6.964;2023-05-16T20:58:14;4.67;;;3.17;;
15307;SDS011;7755;52.208;6.964;2023-05-16T21:02:18;4.47;;;3.20;;
15307;SDS011;7755;52.208;6.964;2023-05-16T21:06:21;6.07;;;3.30;;
15307;SDS011;7755;52.208;6.964;2023-05-16T21:10:24;4.20;;;3.00;;
15307;SDS011;7755;52.208;6.964;2023-05-16T21:14:26;4.50;;;2.77;;
15307;SDS011;7755;52.208;6.964;2023-05-16T21:18:31;3.33;;;3.03;;
15307;SDS011;7755;52.208;6.964;2023-05-16T21:22:34;4.57;;;3.70;;
15307;SDS011;7755;52.208;6.964;2023-05-16T21:26:36;7.07;;;3.97;;
15307;SDS011;7755;52.208;6.964;2023-05-16T21:30:39;3.83;;;3.27;;
15307;SDS011;7755;52.208;6.964;2023-05-16T21:34:44;3.57;;;3.27;;
15307;SDS011;7755;52.208;6.964;2023-05-16T21:38:46;6.73;;;3.90;;
15307;SDS011;7755;52.208;6.964;2023-05-16T21:42:49;3.27;;;2.97;;
15307;SDS011;7755;52.208;6.964;2023-05-16T21:46:53;5.90;;;3.93;;
15307;SDS011;7755;52.208;6.964;2023-05-16T21:50:57;6.27;;;4.30;;
15307;SDS011;7755;52.208;6.964;2023-05-16T21:55:00;5.70;;;3.30;;
15307;SDS011;7755;52.208;6.964;2023-05-16T21:59:03;6.23;;;3.77;;
15307;SDS011;7755;52.208;6.964;2023-05-16T22:03:06;7.10;;;4.13;;
15307;SDS011;7755;52.208;6.964;2023-05-16T22:07:10;5.37;;;3.23;;
15307;SDS011;7755;52.208;6.964;2023-05-16T22:11:13;4.83;;;3.77;;
15307;SDS011;7755;52.208;6.964;2023-05-16T22:15:16;5.40;;;3.67;;
15307;SDS011;7755;52.208;6.964;2023-05-16T22:19:20;8.40;;;4.33;;
15307;SDS011;7755;52.208;6.964;2023-05-16T22:23:24;6.00;;;3.43;;
15307;SDS011;7755;52.208;6.964;2023-05-16T22:27:27;8.37;;;3.97;;
15307;SDS011;7755;52.208;6.964;2023-05-16T22:31:29;7.00;;;3.77;;
15307;SDS011;7755;52.208;6.964;2023-05-16T22:35:32;6.20;;;3.93;;
15307;SDS011;7755;52.208;6.964;2023-05-16T22:39:37;6.33;;;4.33;;
15307;SDS011;7755;52.208;6.964;2023-05-16T22:43:39;6.20;;;4.50;;
15307;SDS011;7755;52.208;6.964;2023-05-16T22:47:42;9.57;;;5.20;;
15307;SDS011;7755;52.208;6.964;2023-05-16T22:51:45;7.60;;;4.67;;
15307;SDS011;7755;52.208;6.964;2023-05-16T22:55:50;6.80;;;4.23;;
15307;SDS011;7755;52.208;6.964;2023-05-16T22:59:53;7.93;;;4.90;;
15307;SDS011;7755;52.208;6.964;2023-05-16T23:03:56;9.07;;;5.47;;
15307;SDS011;7755;52.208;6.964;2023-05-16T23:07:59;8.03;;;4.50;;
15307;SDS011;7755;52.208;6.964;2023-05-16T23:12:04;9.77;;;5.23;;
15307;SDS011;7755;52.208;6.964;2023-05-16T23:16:07;9.47;;;4.90;;
15307;SDS011;7755;52.208;6.964;2023-05-16T23:20:10;8.80;;;5.37;;
15307;SDS011;7755;52.208;6.964;2023-05-16T23:24:13;6.90;;;4.37;;
15307;SDS011;7755;52.208;6.964;2023-05-16T23:28:17;10.13;;;5.43;;
15307;SDS011;7755;52.208;6.964;2023-05-16T23:32:20;13.63;;;5.50;;
15307;SDS011;7755;52.208;6.964;2023-05-16T23:36:23;5.77;;;5.07;;
15307;SDS011;7755;52.208;6.964;2023-05-16T23:40:28;9.13;;;4.40;;
15307;SDS011;7755;52.208;6.964;2023-05-16T23:44:32;7.93;;;4.37;;
15307;SDS011;7755;52.208;6.964;2023-05-16T23:48:35;10.47;;;5.37;;
15307;SDS011;7755;52.208;6.964;2023-05-16T23:52:37;11.60;;;5.73;;
15307;SDS011;7755;52.208;6.964;2023-05-16T23:56:40;8.70;;;5.00;;
